createdAt,value
2023-10-22T00:04:40.045Z,95725.91
2023-10-22T00:09:44.886Z,95736.72
2023-10-22T00:14:48.095Z,95729.69
2023-10-22T00:19:51.055Z,95738.88
2023-10-22T00:24:55.279Z,95735.66
2023-10-22T00:29:58.269Z,95742.66
2023-10-22T00:35:01.161Z,95738.34
2023-10-22T00:40:06.320Z,95743.22
2023-10-22T00:45:09.743Z,95750.22
2023-10-22T00:50:12.682Z,95752.13
2023-10-22T00:55:17.315Z,95749.41
2023-10-22T01:00:21.360Z,95765.06
2023-10-22T01:05:24.262Z,95756.44
2023-10-22T01:10:28.493Z,95763.72
2023-10-22T01:15:33.228Z,95764.00
2023-10-22T01:20:36.197Z,95753.75
2023-10-22T01:25:40.443Z,95767.81
2023-10-22T01:30:43.598Z,95765.66
2023-10-22T01:35:46.519Z,95767.00
2023-10-22T01:40:50.777Z,95775.66
2023-10-22T01:45:53.629Z,95779.97
2023-10-22T01:50:56.511Z,95779.97
2023-10-22T01:56:00.799Z,95758.38
2023-10-22T02:01:04.369Z,95758.66
2023-10-22T02:06:12.134Z,95764.03
2023-10-22T02:11:16.448Z,95767.00
2023-10-22T02:16:20.196Z,95766.50
2023-10-22T02:21:27.279Z,95782.94
2023-10-22T02:26:31.489Z,95778.13
2023-10-22T02:31:34.373Z,95792.41
2023-10-22T02:36:37.427Z,95784.03
2023-10-22T02:41:41.647Z,95807.25
2023-10-22T02:46:44.751Z,95812.09
2023-10-22T02:51:49.195Z,95819.09
2023-10-22T02:56:53.399Z,95817.75
2023-10-22T03:01:56.285Z,95814.22
2023-10-22T03:06:59.160Z,95823.16
2023-10-22T03:12:03.444Z,95829.63
2023-10-22T03:17:06.742Z,95832.06
2023-10-22T03:22:09.586Z,95838.53
2023-10-22T03:27:13.804Z,95847.72
2023-10-22T03:32:16.740Z,95845.84
2023-10-22T03:37:19.589Z,95852.84
2023-10-22T03:42:23.745Z,95852.31
2023-10-22T03:47:26.624Z,95852.31
2023-10-22T03:52:30.511Z,95860.69
2023-10-22T03:57:35.017Z,95869.31
2023-10-22T04:02:37.956Z,95870.38
2023-10-22T04:07:40.865Z,95875.78
2023-10-22T04:12:45.185Z,95875.78
2023-10-22T04:17:48.541Z,95878.22
2023-10-22T04:22:52.340Z,95878.50
2023-10-22T04:27:56.826Z,95899.00
2023-10-22T04:33:00.182Z,95890.91
2023-10-22T04:38:03.810Z,95892.53
2023-10-22T04:43:07.980Z,95891.97
2023-10-22T04:48:10.880Z,95903.59
2023-10-22T04:53:13.892Z,95905.75
2023-10-22T04:58:18.090Z,95914.66
2023-10-22T05:03:21.024Z,95919.78
2023-10-22T05:08:24.935Z,95916.28
2023-10-22T05:13:29.134Z,95920.06
2023-10-22T05:18:34.020Z,95925.72
2023-10-22T05:23:37.548Z,95931.13
2023-10-22T05:28:41.800Z,95936.25
2023-10-22T05:33:44.777Z,95924.63
2023-10-22T05:38:47.992Z,95935.72
2023-10-22T05:43:52.695Z,95935.72
2023-10-22T05:48:55.652Z,95934.91
2023-10-22T05:53:58.572Z,95950.00
2023-10-22T05:59:05.869Z,95955.66
2023-10-22T06:04:09.197Z,95955.97
2023-10-22T06:09:13.440Z,95945.16
2023-10-22T06:14:18.049Z,95946.78
2023-10-22T06:19:20.977Z,95962.16
2023-10-22T06:24:23.985Z,95962.97
2023-10-22T06:29:28.261Z,95977.25
2023-10-22T06:34:31.216Z,95985.09
2023-10-22T06:39:34.140Z,95977.00
2023-10-22T06:44:42.907Z,95973.50
2023-10-22T06:49:45.853Z,95983.22
2023-10-22T06:54:48.733Z,95977.81
2023-10-22T06:59:53.619Z,95990.22
2023-10-22T07:04:57.514Z,95990.22
2023-10-22T07:10:00.431Z,95987.53
2023-10-22T07:15:05.321Z,95990.22
2023-10-22T07:20:12.896Z,95992.91
2023-10-22T07:25:17.173Z,95998.06
2023-10-22T07:30:21.555Z,96003.47
2023-10-22T07:35:24.480Z,96003.47
2023-10-22T07:40:27.349Z,96002.63
2023-10-22T07:50:35.820Z,96009.94
2023-10-22T07:55:40.640Z,96007.25
2023-10-22T08:00:44.825Z,96004.25
2023-10-22T08:05:47.709Z,96009.38
2023-10-22T08:10:50.823Z,96012.09
2023-10-22T08:15:55.992Z,96011.56
2023-10-22T08:21:02.945Z,96006.94
2023-10-22T08:26:06.083Z,96008.59
2023-10-22T08:31:10.323Z,96015.88
2023-10-22T08:36:13.225Z,96019.91
2023-10-22T08:41:21.959Z,96033.16
2023-10-22T08:46:26.266Z,96026.41
2023-10-22T08:51:29.611Z,96041.78
2023-10-22T08:56:33.254Z,96055.78
2023-10-22T09:01:37.456Z,96057.44
2023-10-22T09:06:40.573Z,96055.25
2023-10-22T09:11:55.526Z,96061.19
2023-10-22T09:17:00.210Z,96067.97
2023-10-22T09:22:03.428Z,96063.34
2023-10-22T09:27:06.287Z,96070.09
2023-10-22T09:32:10.993Z,96061.75
2023-10-22T09:37:17.214Z,96063.38
2023-10-22T09:42:20.157Z,96069.59
2023-10-22T09:47:26.614Z,96069.84
2023-10-22T09:52:31.464Z,96060.09
2023-10-22T09:57:35.902Z,96059.06
2023-10-22T10:02:41.190Z,96061.75
2023-10-22T10:07:44.370Z,96062.53
2023-10-22T10:12:47.429Z,96058.22
2023-10-22T10:17:54.674Z,96052.56
2023-10-22T10:23:06.079Z,96056.88
2023-10-22T10:28:10.122Z,96056.34
2023-10-22T10:33:17.343Z,96051.75
2023-10-22T10:38:24.689Z,96049.31
2023-10-22T10:44:05.011Z,96053.94
2023-10-22T10:49:09.295Z,96053.63
2023-10-22T10:54:21.859Z,96042.03
2023-10-22T10:59:29.094Z,96041.22
2023-10-22T11:04:33.608Z,96034.47
2023-10-22T11:09:39.198Z,96029.91
2023-10-22T11:14:42.238Z,96022.06
2023-10-22T11:19:51.814Z,96016.38
2023-10-22T11:24:56.967Z,96016.91
2023-10-22T11:30:01.293Z,96015.56
2023-10-22T11:35:08.462Z,96004.50
2023-10-22T11:40:27.445Z,95995.56
2023-10-22T11:45:31.859Z,95992.59
2023-10-22T11:50:39.221Z,95990.69
2023-10-22T11:55:42.228Z,95995.81
2023-10-22T12:00:45.250Z,95995.28
2023-10-22T12:05:49.619Z,95991.50
2023-10-22T12:10:52.613Z,95992.84
2023-10-22T12:15:55.492Z,96000.44
2023-10-22T12:20:59.744Z,95996.09
2023-10-22T12:26:03.519Z,95993.94
2023-10-22T12:31:09.143Z,95986.66
2023-10-22T12:36:13.431Z,96000.16
2023-10-22T12:41:16.327Z,95996.34
2023-10-22T12:46:20.493Z,95999.63
2023-10-22T12:51:24.896Z,96000.69
2023-10-22T12:56:27.831Z,96008.53
2023-10-22T13:01:30.722Z,96005.56
2023-10-22T13:06:35.053Z,96011.47
2023-10-22T13:11:38.800Z,96014.75
2023-10-22T13:16:41.710Z,96020.41
2023-10-22T13:21:47.630Z,96020.16
2023-10-22T13:26:50.495Z,96027.69
2023-10-22T13:31:53.345Z,96020.41
2023-10-22T13:36:57.535Z,96022.28
2023-10-22T13:42:00.463Z,96026.59
2023-10-22T13:47:03.516Z,96033.66
2023-10-22T13:52:08.500Z,96025.81
2023-10-22T13:57:11.526Z,96029.03
2023-10-22T14:02:14.473Z,96041.19
2023-10-22T14:07:18.711Z,96033.66
2023-10-22T14:12:21.632Z,96034.16
2023-10-22T14:17:24.495Z,96027.66
2023-10-22T14:22:28.692Z,96023.88
2023-10-22T14:27:32.842Z,96031.44
2023-10-22T14:32:36.170Z,96028.47
2023-10-22T14:37:40.458Z,96031.19
2023-10-22T14:42:43.302Z,96023.34
2023-10-22T14:47:46.197Z,96025.47
2023-10-22T14:52:50.442Z,96023.34
2023-10-22T14:57:53.274Z,96030.34
2023-10-22T15:02:56.196Z,96025.22
2023-10-22T15:08:00.463Z,96030.38
2023-10-22T15:13:03.334Z,96033.06
2023-10-22T15:18:06.645Z,96037.13
2023-10-22T15:23:11.131Z,96025.53
2023-10-22T15:28:14.710Z,96034.44
2023-10-22T15:33:18.152Z,96039.59
2023-10-22T15:38:22.481Z,96041.75
2023-10-22T15:43:25.307Z,96047.66
2023-10-22T15:48:32.562Z,96060.13
2023-10-22T15:53:38.891Z,96063.34
2023-10-22T15:58:41.716Z,96057.69
2023-10-22T16:03:44.633Z,96053.38
2023-10-22T16:08:48.935Z,96053.91
2023-10-22T16:13:51.778Z,96042.84
2023-10-22T16:18:56.289Z,96039.88
2023-10-22T16:24:00.590Z,96042.84
2023-10-22T16:29:03.588Z,96046.63
2023-10-22T16:34:06.450Z,96048.78
2023-10-22T16:39:10.725Z,96047.97
2023-10-22T16:44:13.594Z,96050.97
2023-10-22T16:49:16.478Z,96060.13
2023-10-22T16:54:20.718Z,96058.50
2023-10-22T16:59:23.596Z,96060.41
2023-10-22T17:04:26.455Z,96074.16
2023-10-22T17:09:30.705Z,96079.81
2023-10-22T17:14:51.048Z,96079.00
2023-10-22T17:19:55.512Z,96085.78
2023-10-22T17:24:59.868Z,96082.25
2023-10-22T17:30:02.870Z,96080.66
2023-10-22T17:35:06.626Z,96083.34
2023-10-22T17:40:11.921Z,96074.97
2023-10-22T17:45:14.904Z,96076.06
2023-10-22T17:50:18.247Z,96090.34
2023-10-22T17:55:22.421Z,96080.63
2023-10-22T18:00:25.437Z,96098.72
2023-10-22T18:05:28.396Z,96100.88
2023-10-22T18:10:33.002Z,96097.34
2023-10-22T18:15:41.820Z,96103.84
2023-10-22T18:20:44.726Z,96094.13
2023-10-22T18:25:59.661Z,96104.66
2023-10-22T18:31:02.795Z,96114.09
2023-10-22T18:36:06.427Z,96117.88
2023-10-22T18:41:12.039Z,96117.06
2023-10-22T18:46:15.923Z,96123.53
2023-10-22T18:51:20.762Z,96117.31
2023-10-22T18:56:25.071Z,96130.81
2023-10-22T19:01:28.200Z,96140.81
2023-10-22T19:06:32.460Z,96135.66
2023-10-22T19:11:36.737Z,96127.56
2023-10-22T19:16:39.664Z,96131.34
2023-10-22T19:21:43.755Z,96148.63
2023-10-22T19:26:48.112Z,96165.34
2023-10-22T19:31:51.009Z,96155.66
2023-10-22T19:36:53.894Z,96162.91
2023-10-22T19:41:58.444Z,96155.09
2023-10-22T19:47:01.383Z,96148.88
2023-10-22T19:52:04.722Z,96156.16
2023-10-22T19:57:09.024Z,96154.53
2023-10-22T20:02:17.913Z,96156.44
2023-10-22T20:07:21.376Z,96164.25
2023-10-22T20:12:25.612Z,96166.94
2023-10-22T20:17:28.518Z,96163.47
2023-10-22T20:22:31.415Z,96150.22
2023-10-22T20:27:35.657Z,96151.31
2023-10-22T20:32:38.595Z,96147.78
2023-10-22T20:37:43.280Z,96150.50
2023-10-22T20:42:47.568Z,96154.28
2023-10-22T20:47:50.491Z,96143.47
2023-10-22T20:52:53.424Z,96141.03
2023-10-22T20:57:57.609Z,96138.34
2023-10-22T21:03:00.548Z,96140.25
2023-10-22T21:08:03.478Z,96140.50
2023-10-22T21:13:07.697Z,96124.31
2023-10-22T21:18:10.718Z,96129.97
2023-10-22T21:23:13.624Z,96127.00
2023-10-22T21:28:17.815Z,96131.59
2023-10-22T21:33:24.792Z,96135.09
2023-10-22T21:38:27.761Z,96122.69
2023-10-22T21:43:32.492Z,96124.31
2023-10-22T21:48:35.659Z,96123.78
2023-10-22T21:53:38.675Z,96139.41
2023-10-22T21:58:42.900Z,96147.25
2023-10-22T22:03:45.840Z,96137.28
2023-10-22T22:08:48.966Z,96139.41
2023-10-22T22:13:56.520Z,96144.53
2023-10-22T22:18:59.645Z,96142.09
2023-10-22T22:24:02.705Z,96138.63
2023-10-22T22:29:07.788Z,96138.03
2023-10-22T22:34:10.874Z,96131.84
2023-10-22T22:39:13.775Z,96136.97
2023-10-22T22:44:17.982Z,96145.88
2023-10-22T22:49:21.297Z,96143.19
2023-10-22T22:54:24.263Z,96139.13
2023-10-22T22:59:29.079Z,96134.56
2023-10-22T23:04:31.955Z,96141.81
2023-10-22T23:09:34.891Z,96130.22
2023-10-22T23:14:39.238Z,96132.91
2023-10-22T23:19:42.320Z,96139.38
2023-10-22T23:24:45.293Z,96139.38
2023-10-22T23:29:49.603Z,96137.78
2023-10-22T23:34:52.464Z,96135.06
2023-10-22T23:39:55.327Z,96136.97
2023-10-22T23:44:59.541Z,96131.59
2023-10-22T23:50:02.413Z,96131.84
2023-10-22T23:55:06.967Z,96143.44
